UAE29U LSGG-OMDB
Flight info
| Callsign | UAE29U |
|---|---|
| Flight time | N/A |
| Altitude | 37000 |
| Route | MEDAM DCT NITAM DCT MOGBO DCT NEDED DCT LUKIM DCT SOVAN DCT ERIKA DCT LUNAR DCT UPLAD DCT ALIXI DCT RUTOM DCT SALUN N705 MMA P751 DASUM Y234 FYM M872 BOPOB/N0485F390 M872 BDB Y214 RAPMA DCT KUVSO DCT KATIT DCT PEKEM M628 RIGIL G783 ELUDA/N0492F350 G783 ASPED Q308 KIPOK Q568 IMPED |
| Aircraft | B77L/H-SDE1E2E3FGHIJ2J3J4J5M1RWXY/LB1D1 |
Departure
| Time | N/A |
|---|---|
| Airport | Geneva International Airport (LSGG) |
Arrival
| Time | 2026-04-25 23:54 |
|---|---|
| Airport | Dubai International Airport (OMDB) |
| Time | Latitude | Longitude | Altitude | Speed | Heading |
|---|---|---|---|---|---|
| 2026-04-25 23:00 | 23.08420 | 50.86509 | 36904 ft | 558 kts | 97° |
| 2026-04-25 23:01 | 23.07140 | 50.94765 | 36900 ft | 558 kts | 98° |
| 2026-04-25 23:01 | 23.05849 | 51.03067 | 36895 ft | 558 kts | 98° |
| 2026-04-25 23:02 | 23.04549 | 51.11393 | 36885 ft | 558 kts | 98° |
| 2026-04-25 23:02 | 23.03252 | 51.19669 | 36893 ft | 557 kts | 98° |
| 2026-04-25 23:03 | 23.01954 | 51.27926 | 36893 ft | 556 kts | 98° |
| 2026-04-25 23:03 | 23.00644 | 51.36227 | 36895 ft | 556 kts | 98° |
| 2026-04-25 23:04 | 22.99550 | 51.43140 | 36893 ft | 556 kts | 98° |
| 2026-04-25 23:04 | 22.98025 | 51.52742 | 36892 ft | 555 kts | 98° |
| 2026-04-25 23:05 | 22.96713 | 51.60970 | 36891 ft | 555 kts | 98° |
| 2026-04-25 23:05 | 22.95387 | 51.69261 | 36888 ft | 555 kts | 98° |
| 2026-04-25 23:06 | 22.94063 | 51.77511 | 36887 ft | 555 kts | 98° |
| 2026-04-25 23:06 | 22.92741 | 51.85717 | 36887 ft | 555 kts | 98° |
| 2026-04-25 23:07 | 22.91407 | 51.93972 | 36880 ft | 555 kts | 98° |
| 2026-04-25 23:07 | 22.90072 | 52.02207 | 36883 ft | 555 kts | 98° |
| 2026-04-25 23:08 | 22.88734 | 52.10428 | 36881 ft | 555 kts | 98° |
| 2026-04-25 23:08 | 22.87384 | 52.18698 | 36880 ft | 556 kts | 98° |
| 2026-04-25 23:09 | 22.86039 | 52.26915 | 36874 ft | 556 kts | 98° |
| 2026-04-25 23:09 | 22.84681 | 52.35179 | 36882 ft | 556 kts | 98° |
| 2026-04-25 23:10 | 22.83322 | 52.43426 | 36878 ft | 556 kts | 98° |
| 2026-04-25 23:10 | 22.82231 | 52.51663 | 36877 ft | 552 kts | 90° |
| 2026-04-25 23:11 | 22.82026 | 52.60002 | 36884 ft | 551 kts | 88° |
| 2026-04-25 23:11 | 22.81891 | 52.68274 | 36876 ft | 551 kts | 88° |
| 2026-04-25 23:12 | 22.81706 | 52.76601 | 36886 ft | 551 kts | 88° |
| 2026-04-25 23:12 | 22.81487 | 52.84856 | 36881 ft | 551 kts | 89° |
| 2026-04-25 23:13 | 22.81255 | 52.93188 | 36882 ft | 551 kts | 89° |
| 2026-04-25 23:13 | 22.81025 | 53.01457 | 36872 ft | 551 kts | 89° |
| 2026-04-25 23:14 | 22.80792 | 53.09745 | 36883 ft | 549 kts | 89° |
| 2026-04-25 23:14 | 22.80555 | 53.18049 | 36881 ft | 548 kts | 89° |
| 2026-04-25 23:15 | 22.80316 | 53.26295 | 36888 ft | 548 kts | 89° |
| 2026-04-25 23:15 | 22.80071 | 53.34553 | 36885 ft | 547 kts | 89° |
| 2026-04-25 23:16 | 22.79824 | 53.42744 | 36876 ft | 547 kts | 89° |
| 2026-04-25 23:16 | 22.79572 | 53.50989 | 36889 ft | 547 kts | 89° |
| 2026-04-25 23:17 | 22.79316 | 53.59216 | 36882 ft | 547 kts | 89° |
| 2026-04-25 23:17 | 22.79099 | 53.66067 | 36884 ft | 547 kts | 89° |
| 2026-04-25 23:18 | 22.78835 | 53.74318 | 36888 ft | 547 kts | 89° |
| 2026-04-25 23:18 | 22.78567 | 53.82527 | 36887 ft | 547 kts | 89° |
| 2026-04-25 23:19 | 22.78293 | 53.90800 | 36877 ft | 546 kts | 89° |
| 2026-04-25 23:19 | 22.78262 | 53.98951 | 36888 ft | 541 kts | 82° |
| 2026-04-25 23:20 | 22.79388 | 54.06943 | 36882 ft | 534 kts | 73° |
| 2026-04-25 23:20 | 22.81058 | 54.14804 | 36887 ft | 534 kts | 73° |
| 2026-04-25 23:21 | 22.82692 | 54.22608 | 36877 ft | 534 kts | 73° |
| 2026-04-25 23:21 | 22.84291 | 54.30469 | 36880 ft | 533 kts | 73° |
| 2026-04-25 23:22 | 22.85871 | 54.38334 | 36880 ft | 533 kts | 73° |
| 2026-04-25 23:23 | 22.88230 | 54.50093 | 36882 ft | 533 kts | 73° |
| 2026-04-25 23:23 | 22.89806 | 54.57962 | 36872 ft | 533 kts | 73° |
| 2026-04-25 23:24 | 22.91371 | 54.65794 | 36868 ft | 533 kts | 73° |
| 2026-04-25 23:24 | 22.92940 | 54.73677 | 36869 ft | 533 kts | 73° |
| 2026-04-25 23:25 | 22.94496 | 54.81508 | 36862 ft | 534 kts | 73° |
| 2026-04-25 23:25 | 22.96058 | 54.89395 | 36869 ft | 535 kts | 73° |
| 2026-04-25 23:26 | 22.97619 | 54.97297 | 36868 ft | 535 kts | 73° |
| 2026-04-25 23:26 | 22.99178 | 55.05209 | 36876 ft | 536 kts | 74° |
| 2026-04-25 23:27 | 23.00732 | 55.13120 | 36870 ft | 536 kts | 74° |
| 2026-04-25 23:27 | 23.03280 | 55.20449 | 36882 ft | 514 kts | 48° |
| 2026-04-25 23:27 | 23.05712 | 55.23281 | 36889 ft | 502 kts | 34° |
| 2026-04-25 23:28 | 23.08496 | 55.25437 | 36876 ft | 494 kts | 24° |
| 2026-04-25 23:28 | 23.11592 | 55.26972 | 36884 ft | 481 kts | 10° |
| 2026-04-25 23:28 | 23.14816 | 55.27878 | 36903 ft | 478 kts | 8° |
| 2026-04-25 23:29 | 23.21301 | 55.29634 | 36891 ft | 482 kts | 8° |
| 2026-04-25 23:29 | 23.27773 | 55.31482 | 36886 ft | 485 kts | 9° |
| 2026-04-25 23:30 | 23.34311 | 55.33405 | 36881 ft | 487 kts | 9° |
| 2026-04-25 23:30 | 23.40861 | 55.35337 | 36884 ft | 487 kts | 9° |
| 2026-04-25 23:31 | 23.47408 | 55.37265 | 36894 ft | 487 kts | 9° |
| 2026-04-25 23:31 | 23.53914 | 55.39181 | 36891 ft | 487 kts | 9° |
| 2026-04-25 23:32 | 23.60458 | 55.41125 | 36889 ft | 487 kts | 9° |
| 2026-04-25 23:32 | 23.66998 | 55.43074 | 36891 ft | 486 kts | 9° |
| 2026-04-25 23:33 | 23.73496 | 55.45009 | 36898 ft | 486 kts | 9° |
| 2026-04-25 23:33 | 23.80008 | 55.46950 | 36894 ft | 485 kts | 9° |
| 2026-04-25 23:34 | 23.86534 | 55.48896 | 36908 ft | 485 kts | 9° |
| 2026-04-25 23:34 | 23.93032 | 55.50827 | 36387 ft | 488 kts | 9° |
| 2026-04-25 23:34 | 23.96327 | 55.51830 | 35585 ft | 490 kts | 12° |
| 2026-04-25 23:35 | 23.99516 | 55.53215 | 34653 ft | 498 kts | 21° |
| 2026-04-25 23:35 | 24.02559 | 55.55080 | 33656 ft | 506 kts | 29° |
| 2026-04-25 23:35 | 24.05424 | 55.57355 | 32524 ft | 513 kts | 38° |
| 2026-04-25 23:35 | 24.08095 | 55.59980 | 31432 ft | 517 kts | 40° |
| 2026-04-25 23:36 | 24.10696 | 55.62625 | 30224 ft | 512 kts | 41° |
| 2026-04-25 23:36 | 24.13286 | 55.65273 | 28671 ft | 505 kts | 41° |
| 2026-04-25 23:36 | 24.15854 | 55.67876 | 27127 ft | 499 kts | 40° |
| 2026-04-25 23:36 | 24.18398 | 55.70426 | 25712 ft | 493 kts | 40° |
| 2026-04-25 23:37 | 24.20923 | 55.72937 | 24392 ft | 485 kts | 40° |
| 2026-04-25 23:37 | 24.23409 | 55.75399 | 23118 ft | 478 kts | 39° |
| 2026-04-25 23:37 | 24.25855 | 55.77821 | 21789 ft | 469 kts | 40° |
| 2026-04-25 23:37 | 24.28247 | 55.80194 | 20674 ft | 457 kts | 40° |
| 2026-04-25 23:38 | 24.30576 | 55.82508 | 19582 ft | 446 kts | 41° |
| 2026-04-25 23:38 | 24.32850 | 55.84768 | 18497 ft | 436 kts | 41° |
| 2026-04-25 23:38 | 24.35222 | 55.86760 | 17240 ft | 426 kts | 27° |
| 2026-04-25 23:38 | 24.37983 | 55.87773 | 16074 ft | 414 kts | 7° |
| 2026-04-25 23:39 | 24.40848 | 55.87872 | 15427 ft | 409 kts | 354° |
| 2026-04-25 23:39 | 24.43569 | 55.87307 | 14829 ft | 399 kts | 342° |
| 2026-04-25 23:39 | 24.46200 | 55.86383 | 14225 ft | 394 kts | 340° |
| 2026-04-25 23:39 | 24.48796 | 55.85427 | 13709 ft | 390 kts | 340° |
| 2026-04-25 23:40 | 24.51354 | 55.84481 | 13110 ft | 386 kts | 340° |
| 2026-04-25 23:40 | 24.53891 | 55.83552 | 12527 ft | 382 kts | 340° |
| 2026-04-25 23:40 | 24.56411 | 55.82640 | 11955 ft | 378 kts | 340° |
| 2026-04-25 23:40 | 24.58892 | 55.81752 | 11385 ft | 374 kts | 340° |
| 2026-04-25 23:41 | 24.61337 | 55.80883 | 10969 ft | 366 kts | 340° |
| 2026-04-25 23:41 | 24.63713 | 55.80043 | 10802 ft | 351 kts | 340° |
| 2026-04-25 23:41 | 24.65996 | 55.79237 | 10642 ft | 337 kts | 340° |
| 2026-04-25 23:41 | 24.68187 | 55.78464 | 10492 ft | 324 kts | 340° |
| 2026-04-25 23:42 | 24.70266 | 55.77730 | 10368 ft | 312 kts | 340° |
| 2026-04-25 23:42 | 24.72299 | 55.77012 | 10226 ft | 299 kts | 339° |
| 2026-04-25 23:42 | 24.74244 | 55.76324 | 10092 ft | 287 kts | 339° |
| 2026-04-25 23:42 | 24.76122 | 55.75660 | 9875 ft | 280 kts | 339° |
| 2026-04-25 23:43 | 24.77966 | 55.75006 | 9576 ft | 276 kts | 339° |
| 2026-04-25 23:43 | 24.79753 | 55.74372 | 9260 ft | 271 kts | 339° |
| 2026-04-25 23:43 | 24.81529 | 55.73742 | 8964 ft | 267 kts | 339° |
| 2026-04-25 23:43 | 24.83306 | 55.73112 | 8682 ft | 268 kts | 340° |
| 2026-04-25 23:44 | 24.85100 | 55.72474 | 8383 ft | 274 kts | 340° |
| 2026-04-25 23:44 | 24.86932 | 55.71823 | 8085 ft | 278 kts | 340° |
| 2026-04-25 23:44 | 24.88777 | 55.71169 | 7768 ft | 276 kts | 340° |
| 2026-04-25 23:44 | 24.90569 | 55.70534 | 7486 ft | 270 kts | 340° |
| 2026-04-25 23:45 | 24.92316 | 55.69916 | 7387 ft | 257 kts | 340° |
| 2026-04-25 23:45 | 24.93993 | 55.69321 | 7170 ft | 249 kts | 340° |
| 2026-04-25 23:45 | 24.95612 | 55.68747 | 6889 ft | 244 kts | 340° |
| 2026-04-25 23:45 | 24.97221 | 55.68175 | 6569 ft | 240 kts | 340° |
| 2026-04-25 23:46 | 24.98818 | 55.67607 | 6144 ft | 241 kts | 341° |
| 2026-04-25 23:46 | 25.00408 | 55.67041 | 5666 ft | 243 kts | 341° |
| 2026-04-25 23:46 | 25.02002 | 55.66475 | 5454 ft | 233 kts | 341° |
| 2026-04-25 23:46 | 25.03492 | 55.65946 | 5410 ft | 214 kts | 341° |
| 2026-04-25 23:47 | 25.04852 | 55.65463 | 5387 ft | 201 kts | 341° |
| 2026-04-25 23:47 | 25.06182 | 55.64990 | 5385 ft | 200 kts | 341° |
| 2026-04-25 23:47 | 25.07497 | 55.64522 | 5378 ft | 200 kts | 341° |
| 2026-04-25 23:47 | 25.08837 | 55.64046 | 5225 ft | 204 kts | 341° |
| 2026-04-25 23:48 | 25.10065 | 55.63322 | 4849 ft | 204 kts | 315° |
| 2026-04-25 23:48 | 25.10937 | 55.62103 | 4523 ft | 200 kts | 307° |
| 2026-04-25 23:48 | 25.11723 | 55.60849 | 4227 ft | 196 kts | 304° |
| 2026-04-25 23:48 | 25.12452 | 55.59592 | 3959 ft | 191 kts | 303° |
| 2026-04-25 23:49 | 25.13145 | 55.58360 | 3713 ft | 190 kts | 302° |
| 2026-04-25 23:49 | 25.13844 | 55.57105 | 3482 ft | 191 kts | 302° |
| 2026-04-25 23:49 | 25.14535 | 55.55858 | 3244 ft | 192 kts | 302° |
| 2026-04-25 23:49 | 25.15224 | 55.54614 | 3001 ft | 190 kts | 303° |
| 2026-04-25 23:50 | 25.15908 | 55.53379 | 2756 ft | 188 kts | 303° |
| 2026-04-25 23:50 | 25.16595 | 55.52140 | 2519 ft | 186 kts | 303° |
| 2026-04-25 23:50 | 25.17264 | 55.50930 | 2297 ft | 181 kts | 302° |
| 2026-04-25 23:50 | 25.17888 | 55.49802 | 2049 ft | 167 kts | 303° |
| 2026-04-25 23:51 | 25.18466 | 55.48759 | 1864 ft | 149 kts | 303° |
| 2026-04-25 23:51 | 25.18975 | 55.47838 | 1677 ft | 136 kts | 303° |
| 2026-04-25 23:51 | 25.19482 | 55.46924 | 1515 ft | 141 kts | 303° |
| 2026-04-25 23:51 | 25.19989 | 55.46010 | 1330 ft | 140 kts | 302° |
| 2026-04-25 23:52 | 25.20493 | 55.45098 | 1137 ft | 139 kts | 302° |
| 2026-04-25 23:52 | 25.21002 | 55.44178 | 981 ft | 141 kts | 302° |
| 2026-04-25 23:52 | 25.21523 | 55.43238 | 793 ft | 144 kts | 301° |
| 2026-04-25 23:52 | 25.22047 | 55.42292 | 638 ft | 147 kts | 301° |
| 2026-04-25 23:53 | 25.22586 | 55.41317 | 455 ft | 151 kts | 300° |
| 2026-04-25 23:53 | 25.23132 | 55.40313 | 260 ft | 152 kts | 300° |
| 2026-04-25 23:53 | 25.23679 | 55.39328 | 50 ft | 151 kts | 300° |
| 2026-04-25 23:53 | 25.24194 | 55.38398 | 30 ft | 126 kts | 302° |
| 2026-04-25 23:54 | 25.24562 | 55.37736 | 27 ft | 73 kts | 301° |
| 2026-04-25 23:54 | 25.24759 | 55.37373 | 27 ft | 39 kts | 291° |
| 2026-04-25 23:54 | 25.24784 | 55.37152 | 28 ft | 20 kts | 272° |
| 2026-04-25 23:54 | 25.24787 | 55.37057 | 27 ft | 9 kts | 272° |
| 2026-04-25 23:55 | 25.24790 | 55.36978 | 26 ft | 11 kts | 277° |
| 2026-04-25 23:55 | 25.24827 | 55.36899 | 26 ft | 12 kts | 300° |
| 2026-04-25 23:55 | 25.24858 | 55.36809 | 26 ft | 13 kts | 283° |
| 2026-04-25 23:55 | 25.24876 | 55.36710 | 28 ft | 14 kts | 285° |
| 2026-04-25 23:56 | 25.24919 | 55.36617 | 29 ft | 13 kts | 302° |
| 2026-04-25 23:56 | 25.24967 | 55.36529 | 32 ft | 13 kts | 295° |
| 2026-04-25 23:56 | 25.24982 | 55.36440 | 30 ft | 8 kts | 272° |
| 2026-04-25 23:56 | 25.24983 | 55.36418 | 29 ft | 3 kts | 272° |
| 2026-04-25 23:57 | 25.24984 | 55.36385 | 29 ft | 6 kts | 272° |
| 2026-04-25 23:57 | 25.24985 | 55.36353 | 29 ft | 1 kts | 272° |
| 2026-04-25 23:57 | 25.24985 | 55.36344 | 29 ft | 0 kts | 272° |
| 2026-04-25 23:57 | 25.24985 | 55.36339 | 28 ft | 4 kts | 274° |
| 2026-04-25 23:58 | 25.24993 | 55.36308 | 27 ft | 4 kts | 293° |
| 2026-04-25 23:58 | 25.24995 | 55.36268 | 29 ft | 2 kts | 236° |
| 2026-04-25 23:58 | 25.24971 | 55.36254 | 29 ft | 5 kts | 210° |
| 2026-04-25 23:58 | 25.24938 | 55.36232 | 29 ft | 2 kts | 211° |
| 2026-04-25 23:59 | 25.24928 | 55.36225 | 28 ft | 2 kts | 212° |
| 2026-04-25 23:59 | 25.24923 | 55.36222 | 29 ft | 0 kts | 212° |